createdAt,value
2023-04-16T00:01:45.788Z,93.37
2023-04-16T00:04:12.504Z,93.17
2023-04-16T00:06:39.201Z,93.43
2023-04-16T00:09:05.839Z,93.55
2023-04-16T00:11:33.825Z,93.19
2023-04-16T00:14:00.418Z,93.33
2023-04-16T00:16:27.958Z,93.31
2023-04-16T00:18:54.635Z,93.14
2023-04-16T00:21:21.244Z,93.30
2023-04-16T00:23:47.823Z,93.05
2023-04-16T00:26:14.389Z,92.97
2023-04-16T00:28:42.371Z,93.20
2023-04-16T00:31:09.053Z,92.89
2023-04-16T00:33:35.734Z,92.96
2023-04-16T00:36:02.403Z,93.08
2023-04-16T00:38:29.015Z,92.96
2023-04-16T00:40:55.747Z,93.08
2023-04-16T00:43:23.640Z,93.07
2023-04-16T00:45:53.158Z,92.90
2023-04-16T00:48:20.569Z,92.99
2023-04-16T00:50:47.383Z,92.56
2023-04-16T00:53:14.294Z,92.74
2023-04-16T00:55:41.165Z,92.76
2023-04-16T00:58:07.948Z,92.59
2023-04-16T01:00:34.514Z,92.72
2023-04-16T01:03:02.755Z,93.12
2023-04-16T01:05:30.180Z,92.85
2023-04-16T01:07:59.063Z,92.52
2023-04-16T01:10:25.870Z,92.93
2023-04-16T01:12:52.422Z,92.65
2023-04-16T01:15:19.298Z,93.00
2023-04-16T01:17:46.165Z,92.77
2023-04-16T01:20:14.565Z,92.52
2023-04-16T01:22:42.528Z,92.61
2023-04-16T01:25:13.352Z,92.59
2023-04-16T01:27:39.983Z,92.43
2023-04-16T01:30:07.977Z,92.72
2023-04-16T01:32:34.592Z,92.62
2023-04-16T01:35:01.312Z,92.60
2023-04-16T01:37:28.227Z,92.31
2023-04-16T01:39:56.327Z,92.57
2023-04-16T01:42:22.913Z,92.43
2023-04-16T01:44:49.494Z,92.36
2023-04-16T01:47:16.112Z,92.35
2023-04-16T01:49:43.185Z,92.54
2023-04-16T01:52:09.835Z,92.23
2023-04-16T01:54:36.430Z,92.51
2023-04-16T01:57:04.435Z,92.21
2023-04-16T01:59:30.997Z,92.24
2023-04-16T02:02:00.789Z,92.33
2023-04-16T02:04:27.454Z,92.20
2023-04-16T02:06:54.071Z,92.25
2023-04-16T02:09:20.669Z,92.33
2023-04-16T02:11:47.262Z,92.56
2023-04-16T02:14:15.301Z,92.39
2023-04-16T02:16:41.926Z,92.28
2023-04-16T02:19:08.846Z,92.55
2023-04-16T02:21:35.537Z,92.27
2023-04-16T02:24:02.157Z,92.09
2023-04-16T02:26:28.734Z,91.98
2023-04-16T02:28:55.329Z,92.03
2023-04-16T02:31:23.391Z,92.18
2023-04-16T02:33:50.094Z,92.17
2023-04-16T02:36:16.771Z,92.11
2023-04-16T02:38:43.310Z,92.21
2023-04-16T02:41:10.004Z,91.89
2023-04-16T02:43:36.732Z,92.14
2023-04-16T02:46:03.450Z,92.46
2023-04-16T02:48:31.933Z,92.15
2023-04-16T02:50:58.718Z,92.40
2023-04-16T02:53:25.350Z,92.44
2023-04-16T02:55:53.600Z,92.58
2023-04-16T02:58:20.365Z,92.43
2023-04-16T03:00:47.402Z,92.43
2023-04-16T03:03:14.369Z,92.41
2023-04-16T03:05:42.871Z,92.50
2023-04-16T03:08:09.576Z,92.26
2023-04-16T03:10:36.259Z,92.33
2023-04-16T03:13:03.725Z,92.37
2023-04-16T03:15:31.091Z,92.75
2023-04-16T03:17:57.895Z,92.58
2023-04-16T03:20:24.637Z,92.32
2023-04-16T03:22:52.644Z,92.42
2023-04-16T03:25:19.346Z,92.37
2023-04-16T03:27:46.009Z,92.42
2023-04-16T03:30:13.547Z,92.18
2023-04-16T03:32:40.795Z,92.41
2023-04-16T03:35:08.540Z,92.49
2023-04-16T03:37:35.790Z,92.51
2023-04-16T03:40:04.192Z,92.47
2023-04-16T03:42:30.808Z,92.45
2023-04-16T03:44:57.368Z,92.44
2023-04-16T03:47:23.967Z,92.31
2023-04-16T03:49:50.831Z,92.36
2023-04-16T03:52:17.420Z,92.66
2023-04-16T03:54:44.037Z,92.71
2023-04-16T03:57:11.995Z,92.57
2023-04-16T03:59:38.597Z,92.62
2023-04-16T04:02:05.289Z,92.58
2023-04-16T04:04:32.281Z,92.31
2023-04-16T04:06:58.999Z,92.40
2023-04-16T04:09:25.593Z,92.49
2023-04-16T04:11:52.157Z,92.76
2023-04-16T04:14:20.218Z,92.70
2023-04-16T04:16:46.853Z,92.75
2023-04-16T04:19:13.553Z,92.73
2023-04-16T04:21:40.073Z,92.76
2023-04-16T04:24:06.644Z,92.79
2023-04-16T04:26:33.275Z,92.88
2023-04-16T04:28:59.908Z,92.71
2023-04-16T04:31:27.938Z,92.86
2023-04-16T04:33:54.639Z,92.65
2023-04-16T04:36:21.206Z,92.42
2023-04-16T04:38:47.857Z,92.60
2023-04-16T04:41:14.439Z,92.44
2023-04-16T04:43:41.048Z,92.52
2023-04-16T04:46:07.692Z,92.67
2023-04-16T04:48:35.855Z,92.87
2023-04-16T04:51:04.739Z,92.74
2023-04-16T04:53:31.731Z,92.59
2023-04-16T04:56:05.497Z,92.77
2023-04-16T04:58:38.628Z,92.81
2023-04-16T05:01:05.347Z,92.75
2023-04-16T05:03:32.076Z,92.96
2023-04-16T05:06:00.112Z,92.64
2023-04-16T05:08:26.689Z,92.59
2023-04-16T05:10:53.301Z,92.69
2023-04-16T05:13:19.935Z,92.76
2023-04-16T05:15:46.706Z,92.52
2023-04-16T05:18:13.248Z,92.88
2023-04-16T05:20:39.805Z,92.67
2023-04-16T05:23:07.900Z,92.65
2023-04-16T05:25:34.851Z,92.70
2023-04-16T05:28:01.490Z,92.80
2023-04-16T05:30:28.113Z,92.79
2023-04-16T05:32:54.709Z,92.48
2023-04-16T05:35:21.518Z,92.69
2023-04-16T05:37:48.103Z,92.39
2023-04-16T05:40:16.305Z,92.52
2023-04-16T05:42:42.902Z,92.52
2023-04-16T05:45:10.461Z,92.63
2023-04-16T05:47:37.328Z,92.65
2023-04-16T05:50:04.355Z,92.26
2023-04-16T05:52:30.951Z,92.39
2023-04-16T05:54:57.512Z,92.41
2023-04-16T05:57:25.643Z,92.43
2023-04-16T05:59:52.211Z,92.33
2023-04-16T06:02:19.525Z,92.43
2023-04-16T06:04:46.205Z,92.37
2023-04-16T06:07:12.795Z,92.36
2023-04-16T06:09:39.394Z,92.47
2023-04-16T06:12:06.065Z,92.41
2023-04-16T06:14:34.016Z,92.37
2023-04-16T06:17:00.621Z,92.34
2023-04-16T06:19:27.213Z,92.12
2023-04-16T06:21:54.237Z,92.32
2023-04-16T06:24:20.877Z,92.29
2023-04-16T06:26:47.479Z,92.35
2023-04-16T06:29:14.014Z,92.31
2023-04-16T06:31:42.246Z,92.38
2023-04-16T06:34:09.256Z,92.57
2023-04-16T06:36:35.874Z,92.41
2023-04-16T06:39:02.445Z,92.38
2023-04-16T06:41:29.035Z,92.29
2023-04-16T06:43:55.747Z,92.06
2023-04-16T06:46:22.416Z,92.10
2023-04-16T06:48:50.612Z,92.67
2023-04-16T06:51:17.237Z,92.48
2023-04-16T06:53:43.866Z,92.16
2023-04-16T06:56:10.426Z,92.09
2023-04-16T06:58:37.215Z,92.44
2023-04-16T07:01:04.433Z,92.16
2023-04-16T07:03:31.588Z,92.21
2023-04-16T07:05:59.824Z,91.93
2023-04-16T07:08:26.485Z,91.82
2023-04-16T07:10:54.206Z,92.15
2023-04-16T07:13:21.121Z,91.83
2023-04-16T07:15:47.985Z,92.15
2023-04-16T07:18:14.710Z,92.28
2023-04-16T07:20:41.458Z,92.41
2023-04-16T07:23:09.427Z,91.95
2023-04-16T07:25:36.030Z,92.34
2023-04-16T07:28:03.553Z,92.56
2023-04-16T07:30:30.137Z,92.48
2023-04-16T07:32:57.073Z,92.09
2023-04-16T07:35:23.758Z,92.49
2023-04-16T07:37:50.348Z,91.84
2023-04-16T07:40:18.392Z,91.65
2023-04-16T07:42:44.989Z,92.12
2023-04-16T07:45:11.952Z,91.70
2023-04-16T07:47:38.623Z,91.74
2023-04-16T07:50:06.637Z,92.19
2023-04-16T07:52:33.269Z,92.31
2023-04-16T07:54:59.799Z,92.41
2023-04-16T07:57:27.984Z,92.37
2023-04-16T07:59:54.555Z,92.32
2023-04-16T08:02:21.280Z,92.09
2023-04-16T08:04:48.180Z,92.13
2023-04-16T08:07:14.924Z,91.74
2023-04-16T08:09:48.178Z,91.77
2023-04-16T08:12:14.964Z,91.44
2023-04-16T08:14:43.107Z,91.24
2023-04-16T08:17:09.694Z,91.39
2023-04-16T08:19:36.332Z,91.57
2023-04-16T08:22:02.994Z,90.71
2023-04-16T08:24:29.735Z,90.26
2023-04-16T08:27:02.466Z,90.44
2023-04-16T08:29:38.217Z,90.59
2023-04-16T08:32:06.823Z,90.66
2023-04-16T08:34:33.445Z,91.17
2023-04-16T08:37:00.046Z,91.03
2023-04-16T08:39:26.630Z,90.86
2023-04-16T08:41:54.341Z,91.06
2023-04-16T08:44:25.767Z,90.85
2023-04-16T08:46:53.909Z,91.10
2023-04-16T08:49:22.088Z,90.35
2023-04-16T08:51:50.949Z,90.17
2023-04-16T08:54:26.431Z,90.04
2023-04-16T08:56:53.979Z,89.89
2023-04-16T08:59:21.815Z,89.93
2023-04-16T09:01:48.775Z,89.98
2023-04-16T09:04:16.321Z,90.46
2023-04-16T09:06:45.892Z,90.18
2023-04-16T09:09:13.008Z,90.45
2023-04-16T09:11:39.572Z,90.38
2023-04-16T09:14:09.726Z,91.13
2023-04-16T09:16:36.718Z,90.39
2023-04-16T09:19:03.381Z,90.48
2023-04-16T09:21:30.173Z,90.41
2023-04-16T09:23:59.708Z,90.44
2023-04-16T09:26:27.742Z,90.03
2023-04-16T09:28:54.369Z,89.49
2023-04-16T09:31:21.687Z,89.48
2023-04-16T09:34:02.172Z,89.41
2023-04-16T09:36:29.174Z,88.82
2023-04-16T09:38:57.491Z,89.20
2023-04-16T09:41:27.540Z,88.16
2023-04-16T09:43:55.254Z,88.59
2023-04-16T09:46:22.135Z,88.67
2023-04-16T09:48:48.855Z,88.97
2023-04-16T09:51:15.642Z,89.01
2023-04-16T09:53:42.270Z,88.22
2023-04-16T09:56:09.178Z,88.54
2023-04-16T09:58:37.494Z,88.41
2023-04-16T10:01:07.811Z,88.48
2023-04-16T10:03:37.270Z,88.59
2023-04-16T10:06:16.046Z,87.73
2023-04-16T10:08:49.659Z,87.61
2023-04-16T10:11:17.666Z,87.28
2023-04-16T10:13:46.211Z,87.57
2023-04-16T10:16:13.241Z,87.87
2023-04-16T10:18:41.677Z,88.08
2023-04-16T10:21:08.827Z,88.03
2023-04-16T10:23:36.275Z,88.09
2023-04-16T10:26:03.378Z,88.42
2023-04-16T10:28:30.928Z,88.73
2023-04-16T10:31:00.775Z,87.77
2023-04-16T10:33:29.387Z,88.15
2023-04-16T10:36:08.219Z,88.66
2023-04-16T10:38:37.839Z,87.54
2023-04-16T10:41:06.203Z,87.55
2023-04-16T10:43:38.476Z,88.10
2023-04-16T10:46:20.474Z,88.17
2023-04-16T10:48:50.105Z,86.85
2023-04-16T10:51:25.457Z,86.52
2023-04-16T10:53:53.792Z,85.98
2023-04-16T10:56:23.748Z,87.03
2023-04-16T10:58:50.440Z,86.62
2023-04-16T11:01:17.303Z,85.69
2023-04-16T11:03:47.191Z,86.30
2023-04-16T11:06:15.728Z,84.64
2023-04-16T11:08:53.895Z,85.76
2023-04-16T11:11:22.367Z,85.07
2023-04-16T11:13:49.295Z,86.13
2023-04-16T11:16:16.848Z,85.33
2023-04-16T11:18:51.108Z,85.26
2023-04-16T11:21:19.427Z,85.32
2023-04-16T11:23:47.467Z,85.67
2023-04-16T11:26:24.790Z,85.58
2023-04-16T11:28:51.660Z,85.43
2023-04-16T11:31:18.438Z,85.20
2023-04-16T11:33:46.572Z,85.94
2023-04-16T11:36:13.272Z,86.05
2023-04-16T11:38:39.894Z,85.84
2023-04-16T11:41:07.128Z,85.97
2023-04-16T11:43:33.836Z,85.34
2023-04-16T11:46:07.479Z,85.75
2023-04-16T11:48:48.582Z,85.41
2023-04-16T11:51:15.616Z,85.76
2023-04-16T11:53:47.207Z,85.15
2023-04-16T11:56:14.766Z,85.57
2023-04-16T11:58:42.484Z,85.41
2023-04-16T12:01:10.271Z,85.63
2023-04-16T12:03:43.118Z,85.60
2023-04-16T12:06:11.544Z,85.62
2023-04-16T12:08:38.333Z,85.71
2023-04-16T12:11:05.090Z,85.77
2023-04-16T12:13:31.795Z,85.22
2023-04-16T12:15:58.418Z,84.90
2023-04-16T12:18:26.213Z,85.11
2023-04-16T12:20:53.094Z,84.71
2023-04-16T12:23:26.164Z,84.96
2023-04-16T12:25:53.553Z,84.86
2023-04-16T12:28:31.263Z,85.23
2023-04-16T12:30:58.145Z,84.89
2023-04-16T12:33:25.237Z,85.44
2023-04-16T12:35:51.993Z,85.84
2023-04-16T12:38:18.813Z,85.55
2023-04-16T12:40:47.114Z,86.17
2023-04-16T12:43:13.944Z,85.77
2023-04-16T12:45:41.113Z,85.96
2023-04-16T12:48:07.851Z,86.28
2023-04-16T12:50:34.729Z,86.29
2023-04-16T12:53:01.475Z,86.21
2023-04-16T12:55:29.523Z,86.39
2023-04-16T12:57:57.576Z,86.58
2023-04-16T13:00:24.330Z,86.37
2023-04-16T13:02:51.239Z,86.66
2023-04-16T13:05:18.053Z,86.46
2023-04-16T13:07:44.916Z,86.36
2023-04-16T13:10:11.897Z,86.69
2023-04-16T13:12:38.576Z,86.54
2023-04-16T13:15:07.845Z,86.38
2023-04-16T13:17:34.548Z,85.91
2023-04-16T13:20:01.194Z,85.51
2023-04-16T13:22:28.380Z,85.52
2023-04-16T13:24:55.474Z,84.92
2023-04-16T13:27:22.169Z,83.95
2023-04-16T13:29:49.034Z,84.16
2023-04-16T13:32:17.512Z,83.97
2023-04-16T13:34:44.736Z,83.34
2023-04-16T13:37:11.504Z,82.49
2023-04-16T13:39:38.231Z,82.56
2023-04-16T13:42:05.098Z,82.64
2023-04-16T13:44:31.733Z,82.73
2023-04-16T13:46:58.804Z,82.19
2023-04-16T13:49:26.965Z,81.32
2023-04-16T13:51:53.566Z,82.10
2023-04-16T13:54:20.291Z,81.37
2023-04-16T13:56:47.240Z,81.17
2023-04-16T13:59:14.184Z,80.54
2023-04-16T14:01:40.930Z,81.50
2023-04-16T14:04:07.908Z,81.28
2023-04-16T14:06:35.999Z,81.02
2023-04-16T14:09:02.665Z,80.78
2023-04-16T14:11:29.333Z,81.09
2023-04-16T14:13:56.145Z,80.68
2023-04-16T14:16:22.984Z,80.76
2023-04-16T14:18:49.770Z,80.94
2023-04-16T14:21:16.514Z,81.46
2023-04-16T14:23:45.137Z,80.67
2023-04-16T14:26:11.983Z,80.56
2023-04-16T14:28:38.752Z,80.49
2023-04-16T14:31:05.397Z,80.25
2023-04-16T14:33:32.077Z,79.56
2023-04-16T14:36:00.072Z,80.08
2023-04-16T14:38:28.797Z,80.40
2023-04-16T14:40:56.902Z,80.22
2023-04-16T14:43:23.622Z,80.04
2023-04-16T14:45:50.298Z,79.72
2023-04-16T14:48:17.176Z,79.68
2023-04-16T14:50:44.149Z,80.51
2023-04-16T14:53:11.375Z,80.21
2023-04-16T14:55:38.141Z,80.45
2023-04-16T14:58:06.203Z,79.69
2023-04-16T15:00:35.062Z,80.43
2023-04-16T15:03:01.964Z,80.42
2023-04-16T15:05:29.930Z,80.60
2023-04-16T15:07:56.642Z,80.74
2023-04-16T15:10:23.315Z,79.67
2023-04-16T15:12:49.941Z,79.52
2023-04-16T15:15:17.975Z,79.35
2023-04-16T15:17:45.333Z,79.73
2023-04-16T15:20:12.866Z,78.97
2023-04-16T15:22:40.120Z,79.41
2023-04-16T15:25:07.636Z,78.78
2023-04-16T15:27:34.619Z,78.85
2023-04-16T15:30:01.299Z,78.71
2023-04-16T15:32:29.332Z,79.17
2023-04-16T15:34:56.023Z,78.06
2023-04-16T15:37:23.459Z,78.85
2023-04-16T15:39:50.259Z,79.37
2023-04-16T15:42:17.322Z,78.74
2023-04-16T15:44:44.250Z,78.83
2023-04-16T15:47:10.958Z,78.83
2023-04-16T15:49:38.990Z,78.96
2023-04-16T15:52:05.744Z,79.13
2023-04-16T15:54:32.465Z,78.97
2023-04-16T15:56:59.333Z,77.85
2023-04-16T15:59:26.681Z,78.05
2023-04-16T16:01:53.478Z,78.37
2023-04-16T16:04:20.589Z,78.31
2023-04-16T16:06:49.009Z,77.60
2023-04-16T16:09:15.742Z,77.22
2023-04-16T16:11:42.401Z,76.40
2023-04-16T16:14:09.211Z,75.90
2023-04-16T16:16:36.014Z,76.02
2023-04-16T16:19:02.814Z,76.18
2023-04-16T16:21:30.222Z,76.34
2023-04-16T16:23:58.382Z,75.75
2023-04-16T16:26:25.130Z,75.17
2023-04-16T16:28:51.890Z,75.76
2023-04-16T16:31:18.558Z,76.04
2023-04-16T16:33:45.436Z,76.38
2023-04-16T16:36:12.323Z,75.67
2023-04-16T16:38:39.261Z,75.40
2023-04-16T16:41:07.502Z,76.23
2023-04-16T16:43:34.927Z,75.92
2023-04-16T16:46:01.698Z,76.13
2023-04-16T16:48:29.050Z,75.47
2023-04-16T16:50:55.870Z,75.17
2023-04-16T16:53:22.690Z,75.68
2023-04-16T16:55:49.235Z,76.05
2023-04-16T16:58:17.414Z,75.15
2023-04-16T17:00:44.209Z,75.41
2023-04-16T17:03:11.419Z,75.45
2023-04-16T17:05:38.333Z,76.01
2023-04-16T17:08:05.326Z,76.70
2023-04-16T17:10:32.056Z,77.40
2023-04-16T17:12:58.862Z,77.91
2023-04-16T17:15:27.110Z,78.29
2023-04-16T17:17:54.050Z,78.83
2023-04-16T17:20:21.007Z,79.28
2023-04-16T17:22:47.774Z,79.61
2023-04-16T17:25:14.695Z,79.04
2023-04-16T17:27:41.478Z,79.37
2023-04-16T17:30:09.123Z,79.98
2023-04-16T17:32:37.376Z,80.64
2023-04-16T17:35:04.828Z,80.60
2023-04-16T17:37:31.925Z,80.25
2023-04-16T17:39:58.634Z,80.19
2023-04-16T17:42:25.326Z,80.98
2023-04-16T17:44:52.105Z,81.07
2023-04-16T17:47:18.858Z,81.27
2023-04-16T17:49:47.012Z,81.80
2023-04-16T17:52:14.065Z,82.16
2023-04-16T17:54:41.740Z,82.34
2023-04-16T17:57:08.461Z,82.48
2023-04-16T17:59:35.156Z,82.93
2023-04-16T18:02:02.058Z,83.33
2023-04-16T18:04:29.169Z,83.76
2023-04-16T18:06:57.981Z,83.72
2023-04-16T18:09:24.818Z,84.03
2023-04-16T18:11:51.595Z,84.04
2023-04-16T18:14:18.398Z,84.16
2023-04-16T18:16:46.676Z,84.19
2023-04-16T18:19:13.354Z,84.08
2023-04-16T18:21:40.024Z,84.26
2023-04-16T18:24:08.882Z,84.63
2023-04-16T18:26:35.934Z,84.62
2023-04-16T18:29:03.922Z,85.04
2023-04-16T18:31:30.914Z,84.80
2023-04-16T18:33:58.574Z,85.36
2023-04-16T18:36:25.723Z,85.31
2023-04-16T18:39:00.270Z,85.75
2023-04-16T18:41:30.647Z,85.76
2023-04-16T18:43:57.465Z,85.92
2023-04-16T18:46:24.346Z,85.94
2023-04-16T18:48:51.174Z,85.83
2023-04-16T18:51:17.902Z,85.96
2023-04-16T18:53:44.715Z,85.96
2023-04-16T18:56:11.488Z,85.95
2023-04-16T18:58:39.621Z,85.88
2023-04-16T19:01:06.203Z,86.08
2023-04-16T19:03:32.952Z,86.22
2023-04-16T19:05:59.682Z,86.08
2023-04-16T19:08:26.260Z,86.64
2023-04-16T19:10:52.964Z,86.54
2023-04-16T19:13:19.555Z,86.79
2023-04-16T19:15:47.797Z,87.13
2023-04-16T19:18:14.522Z,86.64
2023-04-16T19:20:41.242Z,86.57
2023-04-16T19:23:07.817Z,86.11
2023-04-16T19:25:34.825Z,85.70
2023-04-16T19:28:01.419Z,84.99
2023-04-16T19:30:28.159Z,84.96
2023-04-16T19:32:56.135Z,84.69
2023-04-16T19:35:23.115Z,84.72
2023-04-16T19:37:50.057Z,84.80
2023-04-16T19:40:16.836Z,84.62
2023-04-16T19:42:43.418Z,85.04
2023-04-16T19:45:10.261Z,84.53
2023-04-16T19:47:36.884Z,83.99
2023-04-16T19:50:05.557Z,83.77
2023-04-16T19:52:32.120Z,83.54
2023-04-16T19:54:58.838Z,83.65
2023-04-16T19:57:25.460Z,83.32
2023-04-16T19:59:54.062Z,83.51
2023-04-16T20:02:21.773Z,83.60
2023-04-16T20:04:48.483Z,83.64
2023-04-16T20:07:16.450Z,84.04
2023-04-16T20:09:43.057Z,83.69
2023-04-16T20:12:09.633Z,84.05
2023-04-16T20:14:36.255Z,84.19
2023-04-16T20:17:03.247Z,84.41
2023-04-16T20:19:29.862Z,84.24
2023-04-16T20:21:56.522Z,84.41
2023-04-16T20:24:24.689Z,84.44
2023-04-16T20:26:51.509Z,84.46
2023-04-16T20:29:18.041Z,84.56
2023-04-16T20:31:44.607Z,84.66
2023-04-16T20:34:11.269Z,84.48
2023-04-16T20:36:37.878Z,84.36
2023-04-16T20:39:04.430Z,84.16
2023-04-16T20:41:32.500Z,84.21
2023-04-16T20:43:59.133Z,84.54
2023-04-16T20:46:25.723Z,84.45
2023-04-16T20:48:52.380Z,84.67
2023-04-16T20:51:18.957Z,84.48
2023-04-16T20:53:45.550Z,84.76
2023-04-16T20:56:12.343Z,84.76
2023-04-16T20:58:40.841Z,84.84
2023-04-16T21:01:07.561Z,85.27
2023-04-16T21:03:34.473Z,84.81
2023-04-16T21:06:01.231Z,84.66
2023-04-16T21:08:27.979Z,84.90
2023-04-16T21:10:54.766Z,84.84
2023-04-16T21:13:21.396Z,85.33
2023-04-16T21:15:49.470Z,85.42
2023-04-16T21:18:16.291Z,85.59
2023-04-16T21:20:42.848Z,85.24
2023-04-16T21:23:09.481Z,85.47
2023-04-16T21:25:36.091Z,85.69
2023-04-16T21:28:02.878Z,85.61
2023-04-16T21:30:29.768Z,85.81
2023-04-16T21:32:57.914Z,85.89
2023-04-16T21:35:24.610Z,85.52
2023-04-16T21:37:51.196Z,85.81
2023-04-16T21:40:17.972Z,85.72
2023-04-16T21:42:44.621Z,86.17
2023-04-16T21:45:12.148Z,86.12
2023-04-16T21:47:38.916Z,86.04
2023-04-16T21:50:08.299Z,86.06
2023-04-16T21:52:34.976Z,85.96
2023-04-16T21:55:01.492Z,86.34
2023-04-16T21:57:28.138Z,86.13
2023-04-16T21:59:55.123Z,85.97
2023-04-16T22:02:21.979Z,85.92
2023-04-16T22:04:48.726Z,86.31
2023-04-16T22:07:16.816Z,86.22
2023-04-16T22:09:43.510Z,86.46
2023-04-16T22:12:10.121Z,86.16
2023-04-16T22:14:39.237Z,86.41
2023-04-16T22:17:08.887Z,85.95
2023-04-16T22:19:35.501Z,86.21
2023-04-16T22:22:02.061Z,86.13
2023-04-16T22:24:30.167Z,86.08
2023-04-16T22:26:56.748Z,86.03
2023-04-16T22:29:23.393Z,86.13
2023-04-16T22:31:49.992Z,86.33
2023-04-16T22:34:16.670Z,85.88
2023-04-16T22:36:43.264Z,86.21
2023-04-16T22:39:10.079Z,86.23
2023-04-16T22:41:38.443Z,86.31
2023-04-16T22:44:05.222Z,86.60
2023-04-16T22:46:31.972Z,85.96
2023-04-16T22:48:58.613Z,86.08
2023-04-16T22:51:25.154Z,85.86
2023-04-16T22:53:51.821Z,85.82
2023-04-16T22:56:18.716Z,85.69
2023-04-16T22:58:46.724Z,85.33
2023-04-16T23:01:13.345Z,85.66
2023-04-16T23:03:40.094Z,85.58
2023-04-16T23:06:07.010Z,85.34
2023-04-16T23:08:33.672Z,84.87
2023-04-16T23:11:00.302Z,84.96
2023-04-16T23:13:26.948Z,84.75
2023-04-16T23:15:55.003Z,84.48
2023-04-16T23:18:21.720Z,84.47
2023-04-16T23:20:50.760Z,84.71
2023-04-16T23:23:17.558Z,84.17
2023-04-16T23:25:44.188Z,84.77
2023-04-16T23:28:10.775Z,84.80
2023-04-16T23:30:37.390Z,84.38
2023-04-16T23:33:05.500Z,84.41
2023-04-16T23:35:32.528Z,84.54
2023-04-16T23:37:59.145Z,84.55
2023-04-16T23:40:25.763Z,84.60
2023-04-16T23:42:52.339Z,84.27
2023-04-16T23:45:19.068Z,84.36
2023-04-16T23:47:45.809Z,83.99
2023-04-16T23:50:13.885Z,84.17
2023-04-16T23:52:40.472Z,84.22
2023-04-16T23:55:07.818Z,84.07
2023-04-16T23:57:34.441Z,83.63
